sensor_id;sensor_type;location;lat;lon;timestamp;pressure;altitude;pressure_sealevel;temperature;humidity
5877;BME280;2964;42.144;24.730;2023-04-01T00:01:24;144262.06;;;10.77;87.34
5877;BME280;2964;42.144;24.730;2023-04-01T00:03:51;144312.34;;;10.97;85.70
5877;BME280;2964;42.144;24.730;2023-04-01T00:06:19;144226.94;;;10.62;86.82
5877;BME280;2964;42.144;24.730;2023-04-01T00:08:46;144224.41;;;10.61;87.73
5877;BME280;2964;42.144;24.730;2023-04-01T00:11:13;144208.03;;;10.55;87.94
5877;BME280;2964;42.144;24.730;2023-04-01T00:13:40;144203.03;;;10.53;88.05
5877;BME280;2964;42.144;24.730;2023-04-01T00:16:07;144160.34;;;10.35;89.00
5877;BME280;2964;42.144;24.730;2023-04-01T00:18:35;144162.84;;;10.36;90.14
5877;BME280;2964;42.144;24.730;2023-04-01T00:21:02;144156.56;;;10.34;90.16
5877;BME280;2964;42.144;24.730;2023-04-01T00:23:29;144132.69;;;10.24;89.52
5877;BME280;2964;42.144;24.730;2023-04-01T00:25:55;144121.34;;;10.19;90.23
5877;BME280;2964;42.144;24.730;2023-04-01T00:28:22;144100.03;;;10.11;90.38
5877;BME280;2964;42.144;24.730;2023-04-01T00:30:49;144078.69;;;10.02;90.51
5877;BME280;2964;42.144;24.730;2023-04-01T00:33:16;144130.16;;;10.23;90.49
5877;BME280;2964;42.144;24.730;2023-04-01T00:35:44;144100.03;;;10.11;89.33
5877;BME280;2964;42.144;24.730;2023-04-01T00:38:11;144041.00;;;9.86;90.10
5877;BME280;2964;42.144;24.730;2023-04-01T00:40:40;144145.25;;;10.29;89.02
5877;BME280;2964;42.144;24.730;2023-04-01T00:43:13;144073.66;;;10.00;90.32
5877;BME280;2964;42.144;24.730;2023-04-01T00:45:41;144038.50;;;9.85;91.45
5877;BME280;2964;42.144;24.730;2023-04-01T00:48:11;144012.13;;;9.75;91.91
5877;BME280;2964;42.144;24.730;2023-04-01T00:50:41;143998.34;;;9.69;91.54
5877;BME280;2964;42.144;24.730;2023-04-01T00:53:10;144024.69;;;9.80;91.53
5877;BME280;2964;42.144;24.730;2023-04-01T00:55:40;144113.84;;;10.16;90.35
5877;BME280;2964;42.144;24.730;2023-04-01T00:58:13;144198.00;;;10.51;87.77
5877;BME280;2964;42.144;24.730;2023-04-01T01:00:40;144137.69;;;10.26;89.14
5877;BME280;2964;42.144;24.730;2023-04-01T01:03:06;144086.19;;;10.05;90.04
5877;BME280;2964;42.144;24.730;2023-04-01T01:05:42;144064.88;;;9.96;90.74
5877;BME280;2964;42.144;24.730;2023-04-01T01:08:17;144032.19;;;9.83;91.59
5877;BME280;2964;42.144;24.730;2023-04-01T01:10:49;144035.97;;;9.84;91.29
5877;BME280;2964;42.144;24.730;2023-04-01T01:13:21;144156.56;;;10.34;88.67
5877;BME280;2964;42.144;24.730;2023-04-01T01:15:56;144186.72;;;10.46;87.74
5877;BME280;2964;42.144;24.730;2023-04-01T01:18:29;144105.06;;;10.13;89.90
5877;BME280;2964;42.144;24.730;2023-04-01T01:21:34;144209.34;;;10.55;88.77
5877;BME280;2964;42.144;24.730;2023-04-01T01:24:22;144270.88;;;10.80;86.72
5877;BME280;2964;42.144;24.730;2023-04-01T01:26:58;144283.44;;;10.86;84.97
5877;BME280;2964;42.144;24.730;2023-04-01T01:30:03;144269.63;;;10.80;83.53
5877;BME280;2964;42.144;24.730;2023-04-01T01:32:43;144091.25;;;10.07;86.74
5877;BME280;2964;42.144;24.730;2023-04-01T01:35:20;144038.50;;;9.85;89.33
5877;BME280;2964;42.144;24.730;2023-04-01T01:37:52;144010.91;;;9.74;89.15
5877;BME280;2964;42.144;24.730;2023-04-01T01:40:20;143918.00;;;9.36;90.61
5877;BME280;2964;42.144;24.730;2023-04-01T01:42:50;144019.69;;;9.78;89.34
5877;BME280;2964;42.144;24.730;2023-04-01T01:45:20;143975.75;;;9.60;89.95
5877;BME280;2964;42.144;24.730;2023-04-01T01:47:49;143965.72;;;9.56;90.99
5877;BME280;2964;42.144;24.730;2023-04-01T01:50:19;143954.41;;;9.51;90.56
5877;BME280;2964;42.144;24.730;2023-04-01T01:52:45;143970.72;;;9.58;92.05
5877;BME280;2964;42.144;24.730;2023-04-01T01:55:27;144044.75;;;9.88;89.24
5877;BME280;2964;42.144;24.730;2023-04-01T01:57:56;144010.91;;;9.74;88.81
5877;BME280;2964;42.144;24.730;2023-04-01T02:00:25;143976.97;;;9.60;89.38
5877;BME280;2964;42.144;24.730;2023-04-01T02:02:52;143939.34;;;9.45;91.31
5877;BME280;2964;42.144;24.730;2023-04-01T02:05:24;143916.75;;;9.36;91.58
5877;BME280;2964;42.144;24.730;2023-04-01T02:07:55;143919.25;;;9.37;90.11
5877;BME280;2964;42.144;24.730;2023-04-01T02:10:25;143929.31;;;9.41;90.01
5877;BME280;2964;42.144;24.730;2023-04-01T02:12:56;143921.78;;;9.38;89.12
5877;BME280;2964;42.144;24.730;2023-04-01T02:15:24;143941.84;;;9.46;88.89
5877;BME280;2964;42.144;24.730;2023-04-01T02:17:56;143953.16;;;9.51;89.36
5877;BME280;2964;42.144;24.730;2023-04-01T02:20:24;143948.13;;;9.49;89.33
5877;BME280;2964;42.144;24.730;2023-04-01T02:22:55;143926.78;;;9.40;90.28
5877;BME280;2964;42.144;24.730;2023-04-01T02:25:26;143909.22;;;9.33;90.08
5877;BME280;2964;42.144;24.730;2023-04-01T02:27:54;143911.75;;;9.34;89.76
5877;BME280;2964;42.144;24.730;2023-04-01T02:30:23;143896.66;;;9.27;89.79
5877;BME280;2964;42.144;24.730;2023-04-01T02:32:52;143867.81;;;9.16;90.33
5877;BME280;2964;42.144;24.730;2023-04-01T02:35:19;143866.56;;;9.15;89.85
5877;BME280;2964;42.144;24.730;2023-04-01T02:37:49;143860.28;;;9.13;89.97
5877;BME280;2964;42.144;24.730;2023-04-01T02:40:16;143902.97;;;9.30;89.71
5877;BME280;2964;42.144;24.730;2023-04-01T02:42:44;143890.41;;;9.25;90.62
5877;BME280;2964;42.144;24.730;2023-04-01T02:45:12;143880.38;;;9.21;91.54
5877;BME280;2964;42.144;24.730;2023-04-01T02:47:39;143876.59;;;9.19;91.15
5877;BME280;2964;42.144;24.730;2023-04-01T02:50:07;143978.28;;;9.61;88.83
5877;BME280;2964;42.144;24.730;2023-04-01T02:52:34;143990.78;;;9.66;88.35
5877;BME280;2964;42.144;24.730;2023-04-01T02:55:03;143958.16;;;9.53;87.90
5877;BME280;2964;42.144;24.730;2023-04-01T02:57:29;143832.69;;;9.01;89.29
5877;BME280;2964;42.144;24.730;2023-04-01T02:59:56;143959.41;;;9.53;88.43
5877;BME280;2964;42.144;24.730;2023-04-01T03:02:23;143874.06;;;9.18;90.91
5877;BME280;2964;42.144;24.730;2023-04-01T03:04:49;143842.72;;;9.05;91.57
5877;BME280;2964;42.144;24.730;2023-04-01T03:07:16;143923.00;;;9.38;90.24
5877;BME280;2964;42.144;24.730;2023-04-01T03:09:43;143865.28;;;9.15;89.99
5877;BME280;2964;42.144;24.730;2023-04-01T03:12:11;143821.41;;;8.97;91.92
5877;BME280;2964;42.144;24.730;2023-04-01T03:14:37;143827.66;;;8.99;91.63
5877;BME280;2964;42.144;24.730;2023-04-01T03:17:04;143791.28;;;8.84;92.49
5877;BME280;2964;42.144;24.730;2023-04-01T03:19:31;143862.81;;;9.14;91.70
5877;BME280;2964;42.144;24.730;2023-04-01T03:21:58;143782.50;;;8.81;92.42
5877;BME280;2964;42.144;24.730;2023-04-01T03:24:25;143771.25;;;8.76;92.54
5877;BME280;2964;42.144;24.730;2023-04-01T03:26:51;143852.78;;;9.10;91.77
5877;BME280;2964;42.144;24.730;2023-04-01T03:29:19;143822.66;;;8.97;91.83
5877;BME280;2964;42.144;24.730;2023-04-01T03:31:46;143860.28;;;9.13;91.46
5877;BME280;2964;42.144;24.730;2023-04-01T03:34:13;143899.19;;;9.28;91.13
5877;BME280;2964;42.144;24.730;2023-04-01T03:36:39;143905.44;;;9.31;91.43
5877;BME280;2964;42.144;24.730;2023-04-01T03:39:06;143762.47;;;8.73;90.62
5877;BME280;2964;42.144;24.730;2023-04-01T03:41:35;143958.16;;;9.53;90.00
5877;BME280;2964;42.144;24.730;2023-04-01T03:44:02;143948.13;;;9.49;90.49
5877;BME280;2964;42.144;24.730;2023-04-01T03:46:30;143985.78;;;9.64;90.13
5877;BME280;2964;42.144;24.730;2023-04-01T03:48:57;143935.56;;;9.43;90.80
5877;BME280;2964;42.144;24.730;2023-04-01T03:51:23;143953.16;;;9.51;90.45
5877;BME280;2964;42.144;24.730;2023-04-01T03:53:50;143978.28;;;9.61;90.19
5877;BME280;2964;42.144;24.730;2023-04-01T03:56:16;143980.75;;;9.62;89.50
5877;BME280;2964;42.144;24.730;2023-04-01T03:58:43;144009.59;;;9.74;88.75
5877;BME280;2964;42.144;24.730;2023-04-01T04:01:15;143999.56;;;9.70;88.49
5877;BME280;2964;42.144;24.730;2023-04-01T04:03:43;144007.13;;;9.73;88.33
5877;BME280;2964;42.144;24.730;2023-04-01T04:06:12;143985.78;;;9.64;88.58
5877;BME280;2964;42.144;24.730;2023-04-01T04:08:39;143978.28;;;9.61;88.70
5877;BME280;2964;42.144;24.730;2023-04-01T04:11:06;143945.59;;;9.47;89.28
5877;BME280;2964;42.144;24.730;2023-04-01T04:13:33;143940.59;;;9.45;89.82
5877;BME280;2964;42.144;24.730;2023-04-01T04:15:59;143953.16;;;9.51;89.33
5877;BME280;2964;42.144;24.730;2023-04-01T04:18:26;144000.88;;;9.70;88.40
5877;BME280;2964;42.144;24.730;2023-04-01T04:20:54;143998.34;;;9.69;88.57
5877;BME280;2964;42.144;24.730;2023-04-01T04:23:21;143919.25;;;9.37;90.24
5877;BME280;2964;42.144;24.730;2023-04-01T04:25:56;143884.16;;;9.22;91.83
5877;BME280;2964;42.144;24.730;2023-04-01T04:28:23;143935.56;;;9.43;90.92
5877;BME280;2964;42.144;24.730;2023-04-01T04:30:50;143928.03;;;9.40;90.79
5877;BME280;2964;42.144;24.730;2023-04-01T04:33:16;144032.19;;;9.83;89.34
5877;BME280;2964;42.144;24.730;2023-04-01T04:35:43;144073.66;;;10.00;88.88
5877;BME280;2964;42.144;24.730;2023-04-01T04:38:11;144010.91;;;9.74;90.13
5877;BME280;2964;42.144;24.730;2023-04-01T04:40:38;143988.31;;;9.65;90.89
5877;BME280;2964;42.144;24.730;2023-04-01T04:43:05;144024.69;;;9.80;91.25
5877;BME280;2964;42.144;24.730;2023-04-01T04:45:32;144076.16;;;10.01;89.95
5877;BME280;2964;42.144;24.730;2023-04-01T04:47:59;143954.41;;;9.51;90.16
5877;BME280;2964;42.144;24.730;2023-04-01T04:50:26;144002.09;;;9.71;90.14
5877;BME280;2964;42.144;24.730;2023-04-01T04:52:52;144052.31;;;9.91;90.52
5877;BME280;2964;42.144;24.730;2023-04-01T04:55:21;144054.78;;;9.92;90.49
5877;BME280;2964;42.144;24.730;2023-04-01T04:57:48;144079.94;;;10.02;91.32
5877;BME280;2964;42.144;24.730;2023-04-01T05:00:15;144101.28;;;10.11;90.25
5877;BME280;2964;42.144;24.730;2023-04-01T05:02:42;144108.78;;;10.14;90.14
5877;BME280;2964;42.144;24.730;2023-04-01T05:05:09;144123.88;;;10.20;89.45
5877;BME280;2964;42.144;24.730;2023-04-01T05:07:35;144169.16;;;10.39;89.00
5877;BME280;2964;42.144;24.730;2023-04-01T05:10:02;144185.44;;;10.46;88.14
5877;BME280;2964;42.144;24.730;2023-04-01T05:12:31;144289.75;;;10.88;86.61
5877;BME280;2964;42.144;24.730;2023-04-01T05:15:01;144375.16;;;11.23;84.84
5877;BME280;2964;42.144;24.730;2023-04-01T05:17:29;144367.63;;;11.20;84.63
5877;BME280;2964;42.144;24.730;2023-04-01T05:19:56;144407.84;;;11.36;83.86
5877;BME280;2964;42.144;24.730;2023-04-01T05:22:23;144375.16;;;11.23;84.04
5877;BME280;2964;42.144;24.730;2023-04-01T05:24:50;144402.84;;;11.34;83.96
5877;BME280;2964;42.144;24.730;2023-04-01T05:27:16;144377.69;;;11.24;83.58
5877;BME280;2964;42.144;24.730;2023-04-01T05:29:44;144304.81;;;10.94;85.31
5877;BME280;2964;42.144;24.730;2023-04-01T05:32:11;144375.16;;;11.23;83.98
5877;BME280;2964;42.144;24.730;2023-04-01T05:34:38;144317.38;;;10.99;85.76
5877;BME280;2964;42.144;24.730;2023-04-01T05:37:04;144307.28;;;10.95;85.33
5877;BME280;2964;42.144;24.730;2023-04-01T05:39:36;144287.22;;;10.87;85.94
5877;BME280;2964;42.144;24.730;2023-04-01T05:42:03;144345.03;;;11.11;85.49
5877;BME280;2964;42.144;24.730;2023-04-01T05:44:30;144390.25;;;11.29;83.94
5877;BME280;2964;42.144;24.730;2023-04-01T05:46:58;144395.28;;;11.31;83.89
5877;BME280;2964;42.144;24.730;2023-04-01T05:49:24;144383.94;;;11.27;84.06
5877;BME280;2964;42.144;24.730;2023-04-01T05:51:51;144410.34;;;11.37;83.65
5877;BME280;2964;42.144;24.730;2023-04-01T05:54:18;144366.41;;;11.19;84.34
5877;BME280;2964;42.144;24.730;2023-04-01T05:56:45;144313.59;;;10.98;86.52
5877;BME280;2964;42.144;24.730;2023-04-01T05:59:12;144427.94;;;11.45;83.51
5877;BME280;2964;42.144;24.730;2023-04-01T06:01:39;144357.59;;;11.16;85.05
5877;BME280;2964;42.144;24.730;2023-04-01T06:04:11;144427.94;;;11.45;84.25
5877;BME280;2964;42.144;24.730;2023-04-01T06:06:39;144402.84;;;11.34;84.00
5877;BME280;2964;42.144;24.730;2023-04-01T06:09:13;144382.72;;;11.26;84.90
5877;BME280;2964;42.144;24.730;2023-04-01T06:11:49;144490.81;;;11.70;83.48
5877;BME280;2964;42.144;24.730;2023-04-01T06:14:28;144578.91;;;12.06;81.01
5877;BME280;2964;42.144;24.730;2023-04-01T06:17:09;144581.38;;;12.07;80.54
5877;BME280;2964;42.144;24.730;2023-04-01T06:19:47;144577.59;;;12.06;80.28
5877;BME280;2964;42.144;24.730;2023-04-01T06:22:38;144503.38;;;11.75;81.81
5877;BME280;2964;42.144;24.730;2023-04-01T06:25:28;144492.06;;;11.71;82.62
5877;BME280;2964;42.144;24.730;2023-04-01T06:28:07;144483.25;;;11.67;83.29
5877;BME280;2964;42.144;24.730;2023-04-01T06:30:43;144523.50;;;11.84;82.35
5877;BME280;2964;42.144;24.730;2023-04-01T06:33:26;144515.97;;;11.81;82.62
5877;BME280;2964;42.144;24.730;2023-04-01T06:42:08;144468.19;;;11.61;83.26
5877;BME280;2964;42.144;24.730;2023-04-01T06:44:45;144458.13;;;11.57;83.72
5877;BME280;2964;42.144;24.730;2023-04-01T06:47:26;144470.72;;;11.62;83.63
5877;BME280;2964;42.144;24.730;2023-04-01T06:50:03;144517.22;;;11.81;83.08
5877;BME280;2964;42.144;24.730;2023-04-01T06:52:41;144576.38;;;12.05;81.76
5877;BME280;2964;42.144;24.730;2023-04-01T06:55:20;144629.19;;;12.27;81.03
5877;BME280;2964;42.144;24.730;2023-04-01T06:57:52;144651.84;;;12.36;80.44
5877;BME280;2964;42.144;24.730;2023-04-01T07:00:27;144704.63;;;12.58;79.82
5877;BME280;2964;42.144;24.730;2023-04-01T07:03:01;144765.06;;;12.82;78.57
5877;BME280;2964;42.144;24.730;2023-04-01T07:05:31;144802.81;;;12.98;77.70
5877;BME280;2964;42.144;24.730;2023-04-01T07:08:01;144802.81;;;12.98;77.80
5877;BME280;2964;42.144;24.730;2023-04-01T07:10:34;144833.03;;;13.10;76.76
5877;BME280;2964;42.144;24.730;2023-04-01T07:13:05;144831.72;;;13.09;76.82
5877;BME280;2964;42.144;24.730;2023-04-01T07:15:37;144868.28;;;13.24;76.38
5877;BME280;2964;42.144;24.730;2023-04-01T07:18:11;144850.66;;;13.17;76.58
5877;BME280;2964;42.144;24.730;2023-04-01T07:20:41;144890.97;;;13.34;76.09
5877;BME280;2964;42.144;24.730;2023-04-01T07:23:19;144906.06;;;13.40;75.61
5877;BME280;2964;42.144;24.730;2023-04-01T07:25:52;144943.81;;;13.55;75.10
5877;BME280;2964;42.144;24.730;2023-04-01T07:28:20;144938.78;;;13.53;75.32
5877;BME280;2964;42.144;24.730;2023-04-01T07:30:53;144888.44;;;13.32;75.54
5877;BME280;2964;42.144;24.730;2023-04-01T07:33:33;144836.81;;;13.11;77.29
5877;BME280;2964;42.144;24.730;2023-04-01T07:36:09;144888.44;;;13.32;77.29
5877;BME280;2964;42.144;24.730;2023-04-01T07:38:46;144833.03;;;13.10;78.14
5877;BME280;2964;42.144;24.730;2023-04-01T07:41:24;144913.63;;;13.43;76.73
5877;BME280;2964;42.144;24.730;2023-04-01T07:44:00;144942.56;;;13.55;76.42
5877;BME280;2964;42.144;24.730;2023-04-01T07:46:40;144948.84;;;13.57;76.09
5877;BME280;2964;42.144;24.730;2023-04-01T07:49:16;144898.50;;;13.37;77.62
5877;BME280;2964;42.144;24.730;2023-04-01T07:51:55;145004.28;;;13.80;76.08
5877;BME280;2964;42.144;24.730;2023-04-01T07:54:31;145069.75;;;14.06;75.05
5877;BME280;2964;42.144;24.730;2023-04-01T07:57:02;145136.53;;;14.34;73.83
5877;BME280;2964;42.144;24.730;2023-04-01T07:59:37;145091.19;;;14.15;73.67
5877;BME280;2964;42.144;24.730;2023-04-01T08:02:16;145029.44;;;13.90;74.19
5877;BME280;2964;42.144;24.730;2023-04-01T08:04:59;144989.16;;;13.74;75.08
5877;BME280;2964;42.144;24.730;2023-04-01T08:07:36;145004.28;;;13.80;75.40
5877;BME280;2964;42.144;24.730;2023-04-01T08:10:12;144943.81;;;13.55;76.36
5877;BME280;2964;42.144;24.730;2023-04-01T08:12:49;144971.50;;;13.66;75.45
5877;BME280;2964;42.144;24.730;2023-04-01T08:15:21;144880.81;;;13.29;77.10
5877;BME280;2964;42.144;24.730;2023-04-01T08:17:59;144860.69;;;13.21;78.09
5877;BME280;2964;42.144;24.730;2023-04-01T08:20:34;144861.94;;;13.22;78.24
5877;BME280;2964;42.144;24.730;2023-04-01T08:23:07;144845.63;;;13.15;78.87
5877;BME280;2964;42.144;24.730;2023-04-01T08:25:41;144855.69;;;13.19;79.23
5877;BME280;2964;42.144;24.730;2023-04-01T08:28:16;144888.44;;;13.32;78.26
5877;BME280;2964;42.144;24.730;2023-04-01T08:30:48;144911.09;;;13.42;77.77
5877;BME280;2964;42.144;24.730;2023-04-01T08:33:19;144936.31;;;13.52;78.09
5877;BME280;2964;42.144;24.730;2023-04-01T08:35:51;144889.69;;;13.33;78.49
5877;BME280;2964;42.144;24.730;2023-04-01T08:38:23;144906.06;;;13.40;78.46
5877;BME280;2964;42.144;24.730;2023-04-01T08:41:10;144854.44;;;13.19;80.22
5877;BME280;2964;42.144;24.730;2023-04-01T08:44:04;144974.06;;;13.67;78.00
5877;BME280;2964;42.144;24.730;2023-04-01T08:47:00;144984.13;;;13.71;77.92
5877;BME280;2964;42.144;24.730;2023-04-01T08:52:57;145134.00;;;14.33;75.28
5877;BME280;2964;42.144;24.730;2023-04-01T08:55:36;145132.75;;;14.32;74.74
5877;BME280;2964;42.144;24.730;2023-04-01T08:58:30;145233.56;;;14.73;72.94
5877;BME280;2964;42.144;24.730;2023-04-01T09:01:11;145089.94;;;14.15;75.40
5877;BME280;2964;42.144;24.730;2023-04-01T09:03:55;145178.09;;;14.51;74.38
5877;BME280;2964;42.144;24.730;2023-04-01T09:06:31;145248.72;;;14.79;71.98
5877;BME280;2964;42.144;24.730;2023-04-01T09:09:10;145049.63;;;13.98;73.91
5877;BME280;2964;42.144;24.730;2023-04-01T09:12:00;145052.13;;;13.99;75.62
5877;BME280;2964;42.144;24.730;2023-04-01T09:14:51;145178.09;;;14.51;73.38
5877;BME280;2964;42.144;24.730;2023-04-01T09:17:49;145222.25;;;14.69;72.20
5877;BME280;2964;42.144;24.730;2023-04-01T09:23:23;145198.28;;;14.59;71.81
5877;BME280;2964;42.144;24.730;2023-04-01T09:28:54;145178.09;;;14.51;72.63
5877;BME280;2964;42.144;24.730;2023-04-01T09:31:42;145150.38;;;14.39;73.00
5877;BME280;2964;42.144;24.730;2023-04-01T09:34:36;145175.56;;;14.49;72.51
5877;BME280;2964;42.144;24.730;2023-04-01T09:37:20;145083.59;;;14.12;74.11
5877;BME280;2964;42.144;24.730;2023-04-01T09:40:17;145207.09;;;14.62;72.34
5877;BME280;2964;42.144;24.730;2023-04-01T09:42:54;145231.09;;;14.72;71.39
5877;BME280;2964;42.144;24.730;2023-04-01T09:45:40;145103.78;;;14.20;74.36
5877;BME280;2964;42.144;24.730;2023-04-01T09:48:16;145231.09;;;14.72;72.86
5877;BME280;2964;42.144;24.730;2023-04-01T09:50:52;145278.94;;;14.92;71.77
5877;BME280;2964;42.144;24.730;2023-04-01T09:53:48;145389.91;;;15.37;68.95
5877;BME280;2964;42.144;24.730;2023-04-01T09:57:01;145352.03;;;15.21;69.43
5877;BME280;2964;42.144;24.730;2023-04-01T09:59:57;145415.09;;;15.47;67.54
5877;BME280;2964;42.144;24.730;2023-04-01T10:06:16;145509.72;;;15.86;66.33
5877;BME280;2964;42.144;24.730;2023-04-01T10:09:16;145548.84;;;16.01;65.13
5877;BME280;2964;42.144;24.730;2023-04-01T10:18:39;145442.81;;;15.58;67.41
5877;BME280;2964;42.144;24.730;2023-04-01T10:21:39;145388.66;;;15.36;67.72
5877;BME280;2964;42.144;24.730;2023-04-01T10:24:49;145475.66;;;15.72;66.01
5877;BME280;2964;42.144;24.730;2023-04-01T10:30:39;145479.44;;;15.73;65.41
5877;BME280;2964;42.144;24.730;2023-04-01T10:36:50;145601.84;;;16.23;64.13
5877;BME280;2964;42.144;24.730;2023-04-01T10:40:00;145444.13;;;15.59;65.98
5877;BME280;2964;42.144;24.730;2023-04-01T10:43:09;145604.34;;;16.24;64.99
5877;BME280;2964;42.144;24.730;2023-04-01T10:46:05;145537.47;;;15.97;64.58
5877;BME280;2964;42.144;24.730;2023-04-01T10:49:05;145611.91;;;16.27;63.34
5877;BME280;2964;42.144;24.730;2023-04-01T10:54:43;145595.50;;;16.20;63.16
5877;BME280;2964;42.144;24.730;2023-04-01T10:57:26;145722.94;;;16.72;62.62
5877;BME280;2964;42.144;24.730;2023-04-01T11:00:23;145786.09;;;16.98;61.43
5877;BME280;2964;42.144;24.730;2023-04-01T11:03:33;145788.66;;;16.99;61.20
5877;BME280;2964;42.144;24.730;2023-04-01T11:06:45;145844.19;;;17.22;60.82
5877;BME280;2964;42.144;24.730;2023-04-01T11:10:02;145927.50;;;17.55;59.57
5877;BME280;2964;42.144;24.730;2023-04-01T11:13:08;145760.88;;;16.88;61.86
5877;BME280;2964;42.144;24.730;2023-04-01T11:16:29;145966.66;;;17.71;59.24
5877;BME280;2964;42.144;24.730;2023-04-01T11:19:34;145997.00;;;17.84;58.15
5877;BME280;2964;42.144;24.730;2023-04-01T11:22:29;146036.16;;;18.00;57.22
5877;BME280;2964;42.144;24.730;2023-04-01T11:25:29;146015.97;;;17.91;58.23
5877;BME280;2964;42.144;24.730;2023-04-01T11:28:15;145925.00;;;17.54;58.20
5877;BME280;2964;42.144;24.730;2023-04-01T11:31:11;145932.53;;;17.58;58.84
5877;BME280;2964;42.144;24.730;2023-04-01T11:33:49;145940.13;;;17.61;58.52
5877;BME280;2964;42.144;24.730;2023-04-01T11:36:28;146009.63;;;17.89;57.37
5877;BME280;2964;42.144;24.730;2023-04-01T11:39:13;145972.97;;;17.74;58.08
5877;BME280;2964;42.144;24.730;2023-04-01T11:41:51;146048.81;;;18.05;56.96
5877;BME280;2964;42.144;24.730;2023-04-01T11:44:37;146069.06;;;18.13;56.64
5877;BME280;2964;42.144;24.730;2023-04-01T11:47:24;146058.91;;;18.09;57.47
5877;BME280;2964;42.144;24.730;2023-04-01T11:50:02;146099.34;;;18.25;57.19
5877;BME280;2964;42.144;24.730;2023-04-01T11:52:52;146160.03;;;18.50;55.63
5877;BME280;2964;42.144;24.730;2023-04-01T11:55:35;146141.03;;;18.42;57.42
5877;BME280;2964;42.144;24.730;2023-04-01T11:58:23;146245.97;;;18.85;55.52
5877;BME280;2964;42.144;24.730;2023-04-01T12:01:06;146119.59;;;18.33;56.97
5877;BME280;2964;42.144;24.730;2023-04-01T12:07:02;146109.44;;;18.29;57.69
5877;BME280;2964;42.144;24.730;2023-04-01T12:09:37;146168.88;;;18.54;56.81
5877;BME280;2964;42.144;24.730;2023-04-01T12:12:17;146238.41;;;18.82;56.54
5877;BME280;2964;42.144;24.730;2023-04-01T12:14:59;146239.66;;;18.82;56.00
5877;BME280;2964;42.144;24.730;2023-04-01T12:17:35;146277.56;;;18.98;55.09
5877;BME280;2964;42.144;24.730;2023-04-01T12:20:28;146210.56;;;18.70;54.85
5877;BME280;2964;42.144;24.730;2023-04-01T12:23:06;146177.69;;;18.57;55.89
5877;BME280;2964;42.144;24.730;2023-04-01T12:25:59;146256.13;;;18.89;55.25
5877;BME280;2964;42.144;24.730;2023-04-01T12:28:41;146286.44;;;19.01;54.03
5877;BME280;2964;42.144;24.730;2023-04-01T12:31:22;146288.97;;;19.02;55.19
5877;BME280;2964;42.144;24.730;2023-04-01T12:37:05;146331.94;;;19.20;55.46
5877;BME280;2964;42.144;24.730;2023-04-01T12:39:48;146362.31;;;19.32;54.95
5877;BME280;2964;42.144;24.730;2023-04-01T12:42:36;146422.97;;;19.57;54.55
5877;BME280;2964;42.144;24.730;2023-04-01T12:45:28;146438.19;;;19.63;54.06
5877;BME280;2964;42.144;24.730;2023-04-01T12:48:26;146405.31;;;19.50;55.26
5877;BME280;2964;42.144;24.730;2023-04-01T12:51:10;146329.44;;;19.19;56.38
5877;BME280;2964;42.144;24.730;2023-04-01T12:54:07;146361.06;;;19.32;55.70
5877;BME280;2964;42.144;24.730;2023-04-01T12:56:44;146348.41;;;19.26;55.66
5877;BME280;2964;42.144;24.730;2023-04-01T12:59:28;146354.69;;;19.29;55.91
5877;BME280;2964;42.144;24.730;2023-04-01T13:02:13;146278.88;;;18.98;56.71
5877;BME280;2964;42.144;24.730;2023-04-01T13:04:56;146285.19;;;19.01;56.69
5877;BME280;2964;42.144;24.730;2023-04-01T13:07:50;146314.28;;;19.13;55.43
5877;BME280;2964;42.144;24.730;2023-04-01T13:10:31;146335.75;;;19.21;55.70
5877;BME280;2964;42.144;24.730;2023-04-01T13:13:24;146401.53;;;19.48;54.98
5877;BME280;2964;42.144;24.730;2023-04-01T13:15:54;146377.47;;;19.38;54.01
5877;BME280;2964;42.144;24.730;2023-04-01T13:18:32;146311.72;;;19.12;54.60
5877;BME280;2964;42.144;24.730;2023-04-01T13:21:09;146261.16;;;18.91;54.24
5877;BME280;2964;42.144;24.730;2023-04-01T13:23:46;146173.94;;;18.56;55.21
5877;BME280;2964;42.144;24.730;2023-04-01T13:26:22;146119.59;;;18.33;55.61
5877;BME280;2964;42.144;24.730;2023-04-01T13:28:56;146101.91;;;18.26;55.35
5877;BME280;2964;42.144;24.730;2023-04-01T13:31:59;146028.63;;;17.97;57.13
5877;BME280;2964;42.144;24.730;2023-04-01T13:34:38;145967.91;;;17.72;57.49
5877;BME280;2964;42.144;24.730;2023-04-01T13:37:26;145880.78;;;17.36;58.97
5877;BME280;2964;42.144;24.730;2023-04-01T13:40:12;145816.41;;;17.10;59.43
5877;BME280;2964;42.144;24.730;2023-04-01T13:42:45;145786.09;;;16.98;61.33
5877;BME280;2964;42.144;24.730;2023-04-01T13:45:16;145755.84;;;16.86;62.61
5877;BME280;2964;42.144;24.730;2023-04-01T13:51:15;145712.84;;;16.68;64.72
5877;BME280;2964;42.144;24.730;2023-04-01T13:54:06;145701.53;;;16.64;66.28
5877;BME280;2964;42.144;24.730;2023-04-01T13:56:46;145677.50;;;16.54;65.78
5877;BME280;2964;42.144;24.730;2023-04-01T14:05:33;145594.25;;;16.20;70.60
5877;BME280;2964;42.144;24.730;2023-04-01T14:08:10;145528.63;;;15.93;72.27
5877;BME280;2964;42.144;24.730;2023-04-01T14:10:44;145504.69;;;15.83;74.06
5877;BME280;2964;42.144;24.730;2023-04-01T14:13:20;145531.19;;;15.94;74.41
5877;BME280;2964;42.144;24.730;2023-04-01T14:16:20;145591.72;;;16.19;72.29
5877;BME280;2964;42.144;24.730;2023-04-01T14:19:07;145584.16;;;16.16;71.88
5877;BME280;2964;42.144;24.730;2023-04-01T14:21:38;145661.13;;;16.47;70.46
5877;BME280;2964;42.144;24.730;2023-04-01T14:24:18;145731.78;;;16.76;67.51
5877;BME280;2964;42.144;24.730;2023-04-01T14:29:50;145793.69;;;17.01;65.52
5877;BME280;2964;42.144;24.730;2023-04-01T14:32:32;145743.16;;;16.81;66.98
5877;BME280;2964;42.144;24.730;2023-04-01T14:35:16;145696.44;;;16.62;68.65
5877;BME280;2964;42.144;24.730;2023-04-01T14:38:05;145673.72;;;16.52;68.90
5877;BME280;2964;42.144;24.730;2023-04-01T14:41:02;145715.41;;;16.69;68.68
5877;BME280;2964;42.144;24.730;2023-04-01T14:47:11;145651.00;;;16.43;69.39
5877;BME280;2964;42.144;24.730;2023-04-01T14:49:42;145656.09;;;16.45;69.20